createdAt,value
2023-03-20T00:02:18.215Z,95300.91
2023-03-20T00:04:47.800Z,95297.44
2023-03-20T00:07:16.872Z,95290.16
2023-03-20T00:09:49.495Z,95295.44
2023-03-20T00:12:21.011Z,95288.13
2023-03-20T00:14:57.033Z,95287.28
2023-03-20T00:17:24.041Z,95290.75
2023-03-20T00:19:52.880Z,95302.94
2023-03-20T00:22:22.586Z,95292.38
2023-03-20T00:24:51.610Z,95283.63
2023-03-20T00:27:21.045Z,95294.00
2023-03-20T00:29:50.250Z,95285.06
2023-03-20T00:32:19.969Z,95283.22
2023-03-20T00:34:54.345Z,95280.38
2023-03-20T00:37:24.196Z,95284.88
2023-03-20T00:39:54.082Z,95275.09
2023-03-20T00:42:29.095Z,95270.66
2023-03-20T00:44:59.673Z,95273.50
2023-03-20T00:47:27.213Z,95274.09
2023-03-20T00:49:54.638Z,95273.06
2023-03-20T00:52:21.877Z,95273.06
2023-03-20T00:54:53.744Z,95271.44
2023-03-20T00:57:41.032Z,95279.19
2023-03-20T01:00:23.031Z,95272.06
2023-03-20T01:02:52.881Z,95272.06
2023-03-20T01:05:23.304Z,95264.13
2023-03-20T01:08:01.970Z,95266.78
2023-03-20T01:10:33.016Z,95258.84
2023-03-20T01:13:00.549Z,95270.00
2023-03-20T01:15:31.432Z,95252.56
2023-03-20T01:17:58.681Z,95255.19
2023-03-20T01:20:35.782Z,95252.56
2023-03-20T01:23:11.209Z,95244.03
2023-03-20T01:25:38.144Z,95256.81
2023-03-20T01:28:21.860Z,95256.81
2023-03-20T01:30:48.569Z,95248.09
2023-03-20T01:33:19.467Z,95251.53
2023-03-20T01:35:49.160Z,95256.81
2023-03-20T01:38:24.332Z,95249.13
2023-03-20T01:40:57.309Z,95255.19
2023-03-20T01:43:26.256Z,95256.81
2023-03-20T01:46:20.157Z,95259.47
2023-03-20T01:49:10.258Z,95255.19
2023-03-20T01:51:39.287Z,95260.47
2023-03-20T01:54:10.858Z,95262.09
2023-03-20T01:56:41.950Z,95273.28
2023-03-20T01:59:18.320Z,95264.75
2023-03-20T02:01:48.362Z,95263.13
2023-03-20T02:04:17.285Z,95261.09
2023-03-20T02:06:45.111Z,95261.31
2023-03-20T02:09:17.080Z,95256.03
2023-03-20T02:11:43.979Z,95255.19
2023-03-20T02:14:13.300Z,95256.81
2023-03-20T02:16:44.767Z,95250.75
2023-03-20T02:19:20.869Z,95250.75
2023-03-20T02:21:53.562Z,95250.75
2023-03-20T02:24:38.538Z,95250.75
2023-03-20T02:27:14.384Z,95249.91
2023-03-20T02:30:19.149Z,95255.19
2023-03-20T02:33:04.220Z,95255.19
2023-03-20T02:35:55.710Z,95267.38
2023-03-20T02:38:25.369Z,95264.75
2023-03-20T02:40:55.037Z,95260.47
2023-03-20T02:43:24.678Z,95256.81
2023-03-20T02:45:56.686Z,95256.03
2023-03-20T02:49:00.696Z,95244.63
2023-03-20T02:51:51.336Z,95244.63
2023-03-20T02:54:40.977Z,95242.63
2023-03-20T02:57:19.288Z,95240.97
2023-03-20T02:59:58.292Z,95247.09
2023-03-20T03:03:07.640Z,95249.72
2023-03-20T03:05:42.846Z,95244.63
2023-03-20T03:08:11.775Z,95244.63
2023-03-20T03:10:47.090Z,95246.25
2023-03-20T03:13:20.560Z,95249.91
2023-03-20T03:15:51.535Z,95244.63
2023-03-20T03:18:25.921Z,95243.84
2023-03-20T03:20:57.386Z,95243.84
2023-03-20T03:23:39.234Z,95236.72
2023-03-20T03:26:09.777Z,95239.34
2023-03-20T03:29:01.771Z,95239.34
2023-03-20T03:31:31.785Z,95243.03
2023-03-20T03:33:59.674Z,95249.13
2023-03-20T03:36:52.730Z,95243.03
2023-03-20T03:39:24.908Z,95248.28
2023-03-20T03:42:07.932Z,95249.13
2023-03-20T03:44:54.333Z,95238.75
2023-03-20T03:47:28.953Z,95241.41
2023-03-20T03:50:17.238Z,95243.25
2023-03-20T03:52:46.398Z,95244.03
2023-03-20T03:55:17.666Z,95245.06
2023-03-20T03:57:46.084Z,95248.28
2023-03-20T04:00:18.257Z,95239.78
2023-03-20T04:02:45.883Z,95246.69
2023-03-20T04:05:12.705Z,95234.50
2023-03-20T04:07:42.471Z,95236.34
2023-03-20T04:10:12.140Z,95229.22
2023-03-20T04:12:40.727Z,95236.13
2023-03-20T04:15:10.017Z,95227.59
2023-03-20T04:17:39.232Z,95230.84
2023-03-20T04:20:09.062Z,95227.59
2023-03-20T04:22:40.391Z,95229.22
2023-03-20T04:25:10.361Z,95231.06
2023-03-20T04:27:40.616Z,95228.44
2023-03-20T04:30:08.032Z,95224.97
2023-03-20T04:32:37.116Z,95222.31
2023-03-20T04:35:08.578Z,95222.31
2023-03-20T04:37:35.309Z,95227.59
2023-03-20T04:40:06.211Z,95229.22
2023-03-20T04:42:32.842Z,95227.59
2023-03-20T04:44:59.439Z,95231.84
2023-03-20T04:47:32.561Z,95232.28
2023-03-20T04:50:01.342Z,95243.44
2023-03-20T04:52:30.144Z,95244.44
2023-03-20T04:54:59.415Z,95256.03
2023-03-20T04:57:28.615Z,95251.53
2023-03-20T04:59:59.620Z,95255.00
2023-03-20T05:02:28.622Z,95256.81
2023-03-20T05:05:04.036Z,95258.84
2023-03-20T05:07:30.714Z,95256.03
2023-03-20T05:09:57.415Z,95261.31
2023-03-20T05:12:26.275Z,95265.75
2023-03-20T05:14:58.230Z,95267.38
2023-03-20T05:17:24.900Z,95265.75
2023-03-20T05:19:53.766Z,95270.25
2023-03-20T05:22:20.607Z,95262.31
2023-03-20T05:24:47.288Z,95265.97
2023-03-20T05:27:14.293Z,95262.31
2023-03-20T05:29:46.763Z,95269.41
2023-03-20T05:32:16.254Z,95274.91
2023-03-20T05:34:45.327Z,95276.53
2023-03-20T05:37:15.131Z,95279.19
2023-03-20T05:39:44.008Z,95279.19
2023-03-20T05:42:12.964Z,95276.53
2023-03-20T05:44:41.773Z,95277.56
2023-03-20T05:47:09.850Z,95273.91
2023-03-20T05:49:41.837Z,95280.81
2023-03-20T05:52:11.332Z,95279.97
2023-03-20T05:54:41.148Z,95292.16
2023-03-20T05:57:10.528Z,95285.06
2023-03-20T05:59:38.804Z,95284.03
2023-03-20T06:02:05.743Z,95282.41
2023-03-20T06:04:35.067Z,95285.66
2023-03-20T06:07:04.021Z,95283.03
2023-03-20T06:09:33.143Z,95280.38
2023-03-20T06:12:02.166Z,95275.09
2023-03-20T06:14:31.986Z,95277.75
2023-03-20T06:17:01.740Z,95283.63
2023-03-20T06:19:30.526Z,95279.97
2023-03-20T06:21:57.380Z,95278.34
2023-03-20T06:24:26.833Z,95279.97
2023-03-20T06:26:59.594Z,95281.59
2023-03-20T06:29:30.637Z,95285.06
2023-03-20T06:32:02.782Z,95285.84
2023-03-20T06:34:32.433Z,95281.41
2023-03-20T06:37:01.394Z,95279.59
2023-03-20T06:39:30.256Z,95282.81
2023-03-20T06:41:59.163Z,95276.72
2023-03-20T06:44:30.629Z,95293.16
2023-03-20T06:46:59.899Z,95287.09
2023-03-20T06:49:27.958Z,95287.69
2023-03-20T06:51:56.854Z,95291.97
2023-03-20T06:54:23.502Z,95285.16
2023-03-20T06:56:55.841Z,95283.94
2023-03-20T06:59:22.611Z,95280.09
2023-03-20T07:01:51.512Z,95273.22
2023-03-20T07:04:18.346Z,95276.16
2023-03-20T07:06:45.020Z,95273.06
2023-03-20T07:09:13.999Z,95277.03
2023-03-20T07:11:46.261Z,95264.28
2023-03-20T07:14:13.114Z,95271.50
2023-03-20T07:16:44.470Z,95274.34
2023-03-20T07:19:17.195Z,95277.63
2023-03-20T07:21:44.209Z,95271.75
2023-03-20T07:24:10.905Z,95266.00
2023-03-20T07:26:45.904Z,95260.97
2023-03-20T07:29:14.758Z,95256.38
2023-03-20T07:31:41.475Z,95263.06
2023-03-20T07:34:10.588Z,95259.09
2023-03-20T07:36:42.049Z,95261.16
2023-03-20T07:39:14.505Z,95264.25
2023-03-20T07:41:41.581Z,95258.88
2023-03-20T07:44:10.412Z,95259.72
2023-03-20T07:46:37.107Z,95264.63
2023-03-20T07:49:05.990Z,95264.69
2023-03-20T07:51:35.903Z,95269.59
2023-03-20T07:54:02.661Z,95265.16
2023-03-20T07:56:29.353Z,95264.19
2023-03-20T07:58:58.185Z,95261.56
2023-03-20T08:01:27.345Z,95262.81
2023-03-20T08:03:57.298Z,95255.75
2023-03-20T08:06:25.075Z,95262.84
2023-03-20T08:08:56.274Z,95260.22
2023-03-20T08:11:28.153Z,95259.22
2023-03-20T08:13:57.105Z,95255.56
2023-03-20T08:16:26.028Z,95251.13
2023-03-20T08:18:53.323Z,95256.41
2023-03-20T08:21:24.726Z,95253.56
2023-03-20T08:23:51.533Z,95259.88
2023-03-20T08:26:22.939Z,95256.44
2023-03-20T08:28:52.603Z,95261.72
2023-03-20T08:31:19.597Z,95269.41
2023-03-20T08:33:46.636Z,95264.13
2023-03-20T08:36:20.440Z,95265.38
2023-03-20T08:38:51.091Z,95265.38
2023-03-20T08:41:18.045Z,95262.09
2023-03-20T08:43:48.118Z,95267.34
2023-03-20T08:46:17.257Z,95260.44
2023-03-20T08:48:44.078Z,95259.63
2023-03-20T08:51:12.752Z,95255.53
2023-03-20T08:53:39.888Z,95253.09
2023-03-20T08:56:12.638Z,95249.03
2023-03-20T08:58:41.212Z,95254.72
2023-03-20T09:01:10.093Z,95250.63
2023-03-20T09:03:40.758Z,95248.38
2023-03-20T09:06:17.737Z,95251.63
2023-03-20T09:08:52.292Z,95246.94
2023-03-20T09:11:23.206Z,95245.75
2023-03-20T09:13:56.290Z,95239.22
2023-03-20T09:16:27.011Z,95243.25
2023-03-20T09:18:57.058Z,95239.38
2023-03-20T09:21:26.993Z,95232.63
2023-03-20T09:23:56.581Z,95232.19
2023-03-20T09:26:25.295Z,95227.72
2023-03-20T09:28:52.908Z,95216.72
2023-03-20T09:31:23.337Z,95218.75
2023-03-20T09:33:52.226Z,95223.59
2023-03-20T09:36:18.942Z,95217.88
2023-03-20T09:38:47.996Z,95214.22
2023-03-20T09:41:28.342Z,95207.91
2023-03-20T09:44:04.824Z,95208.50
2023-03-20T09:46:49.454Z,95204.41
2023-03-20T09:49:19.436Z,95198.25
2023-03-20T09:52:00.649Z,95181.75
2023-03-20T09:54:53.551Z,95181.56
2023-03-20T09:57:29.297Z,95165.69
2023-03-20T09:59:59.865Z,95162.00
2023-03-20T10:03:04.689Z,95156.72
2023-03-20T10:05:41.323Z,95156.13
2023-03-20T10:08:15.031Z,95150.84
2023-03-20T10:10:49.733Z,95140.66
2023-03-20T10:13:38.386Z,95140.09
2023-03-20T10:16:18.601Z,95139.66
2023-03-20T10:18:53.234Z,95136.41
2023-03-20T10:21:27.422Z,95136.41
2023-03-20T10:24:11.214Z,95128.75
2023-03-20T10:26:42.519Z,95128.13
2023-03-20T10:29:19.646Z,95126.97
2023-03-20T10:31:51.106Z,95123.41
2023-03-20T10:34:39.465Z,95121.81
2023-03-20T10:37:39.021Z,95118.19
2023-03-20T10:40:26.809Z,95119.22
2023-03-20T10:42:59.119Z,95115.34
2023-03-20T10:45:43.908Z,95112.47
2023-03-20T10:48:20.333Z,95101.09
2023-03-20T10:50:57.781Z,95095.81
2023-03-20T10:53:34.498Z,95095.06
2023-03-20T10:56:12.743Z,95086.75
2023-03-20T10:58:45.750Z,95093.91
2023-03-20T11:01:12.467Z,95085.34
2023-03-20T11:03:41.356Z,95083.31
2023-03-20T11:06:32.268Z,95074.25
2023-03-20T11:09:18.753Z,95072.03
2023-03-20T11:11:51.688Z,95065.13
2023-03-20T11:14:33.020Z,95062.41
2023-03-20T11:17:00.680Z,95053.09
2023-03-20T11:19:27.478Z,95056.34
2023-03-20T11:21:56.323Z,95053.25
2023-03-20T11:24:42.855Z,95048.41
2023-03-20T11:27:16.223Z,95051.06
2023-03-20T11:29:45.820Z,95040.47
2023-03-20T11:32:34.383Z,95032.94
2023-03-20T11:35:31.110Z,95028.09
2023-03-20T11:38:19.674Z,95027.50
2023-03-20T11:40:48.528Z,95022.03
2023-03-20T11:43:19.036Z,95012.88
2023-03-20T11:45:47.708Z,95011.06
2023-03-20T11:48:24.654Z,95012.09
2023-03-20T11:51:29.990Z,95002.53
2023-03-20T11:54:02.142Z,94988.16
2023-03-20T11:56:33.084Z,94997.09
2023-03-20T11:59:20.921Z,94992.25
2023-03-20T12:01:52.241Z,94986.50
2023-03-20T12:04:29.396Z,94976.97
2023-03-20T12:07:11.112Z,94975.94
2023-03-20T12:09:44.072Z,94969.66
2023-03-20T12:12:31.888Z,94973.09
2023-03-20T12:15:04.660Z,94968.81
2023-03-20T12:17:35.962Z,94964.56
2023-03-20T12:20:28.669Z,94964.78
2023-03-20T12:23:10.449Z,94954.06
2023-03-20T12:26:00.363Z,94955.22
2023-03-20T12:28:29.784Z,94954.19
2023-03-20T12:31:14.623Z,94946.28
2023-03-20T12:34:06.030Z,94936.97
2023-03-20T12:36:32.662Z,94943.28
2023-03-20T12:39:00.108Z,94936.13
2023-03-20T12:41:44.327Z,94933.72
2023-03-20T12:44:32.272Z,94934.53
2023-03-20T12:47:14.591Z,94930.72
2023-03-20T12:49:44.392Z,94930.13
2023-03-20T12:52:43.501Z,94917.91
2023-03-20T12:55:29.900Z,94915.00
2023-03-20T12:58:18.288Z,94921.69
2023-03-20T13:00:49.837Z,94917.78
2023-03-20T13:03:37.553Z,94909.84
2023-03-20T13:06:14.037Z,94901.91
2023-03-20T13:08:49.686Z,94900.31
2023-03-20T13:11:38.200Z,94900.31
2023-03-20T13:14:07.000Z,94901.13
2023-03-20T13:16:57.560Z,94893.41
2023-03-20T13:20:05.722Z,94891.78
2023-03-20T13:22:50.308Z,94879.59
2023-03-20T13:25:21.853Z,94878.56
2023-03-20T13:27:57.828Z,94878.81
2023-03-20T13:30:33.808Z,94872.13
2023-03-20T13:33:47.884Z,94874.75
2023-03-20T13:36:35.404Z,94872.31
2023-03-20T13:39:10.975Z,94860.97
2023-03-20T13:41:40.501Z,94860.53
2023-03-20T13:44:12.163Z,94850.41
2023-03-20T13:46:48.088Z,94855.69
2023-03-20T13:49:22.883Z,94854.06
2023-03-20T13:51:55.728Z,94855.69
2023-03-20T13:54:30.114Z,94847.97
2023-03-20T13:57:04.472Z,94847.50
2023-03-20T13:59:42.288Z,94846.72
2023-03-20T14:02:33.884Z,94850.59
2023-03-20T14:05:26.698Z,94843.19
2023-03-20T14:07:57.299Z,94843.47
2023-03-20T14:10:26.349Z,94841.28
2023-03-20T14:13:00.321Z,94831.56
2023-03-20T14:15:39.168Z,94827.13
2023-03-20T14:18:06.830Z,94828.59
2023-03-20T14:20:41.999Z,94827.25
2023-03-20T14:23:20.729Z,94827.38
2023-03-20T14:25:47.641Z,94823.41
2023-03-20T14:28:14.237Z,94821.63
2023-03-20T14:30:50.129Z,94821.03
2023-03-20T14:33:16.977Z,94815.38
2023-03-20T14:36:10.513Z,94814.41
2023-03-20T14:38:55.147Z,94812.22
2023-03-20T14:41:42.886Z,94811.38
2023-03-20T14:44:53.498Z,94808.97
2023-03-20T14:47:38.891Z,94808.53
2023-03-20T14:50:31.029Z,94810.16
2023-03-20T14:53:21.127Z,94812.66
2023-03-20T14:56:02.181Z,94808.66
2023-03-20T14:58:44.365Z,94805.84
2023-03-20T15:01:31.689Z,94811.13
2023-03-20T15:04:20.986Z,94806.28
2023-03-20T15:06:49.933Z,94803.06
2023-03-20T15:09:18.842Z,94798.38
2023-03-20T15:11:47.902Z,94806.28
2023-03-20T15:14:27.865Z,94806.69
2023-03-20T15:17:01.345Z,94809.75
2023-03-20T15:19:30.891Z,94807.94
2023-03-20T15:22:04.035Z,94802.44
2023-03-20T15:24:30.823Z,94799.44
2023-03-20T15:27:02.183Z,94795.16
2023-03-20T15:29:29.355Z,94803.06
2023-03-20T15:32:12.870Z,94799.81
2023-03-20T15:34:40.530Z,94794.53
2023-03-20T15:37:07.393Z,94797.41
2023-03-20T15:39:43.210Z,94799.81
2023-03-20T15:42:17.474Z,94799.81
2023-03-20T15:44:45.446Z,94793.69
2023-03-20T15:47:15.350Z,94804.25
2023-03-20T15:49:44.228Z,94799.75
2023-03-20T15:52:27.164Z,94803.41
2023-03-20T15:54:55.559Z,94797.94
2023-03-20T15:57:54.478Z,94798.72
2023-03-20T16:00:29.066Z,94790.03
2023-03-20T16:02:55.937Z,94805.41
2023-03-20T16:05:27.555Z,94803.81
2023-03-20T16:07:59.361Z,94804.63
2023-03-20T16:10:34.522Z,94815.78
2023-03-20T16:13:05.594Z,94814.75
2023-03-20T16:15:33.570Z,94814.69
2023-03-20T16:18:04.877Z,94815.03
2023-03-20T16:20:41.296Z,94818.84
2023-03-20T16:23:13.057Z,94817.22
2023-03-20T16:25:42.355Z,94822.50
2023-03-20T16:28:13.792Z,94821.25
2023-03-20T16:30:42.602Z,94825.53
2023-03-20T16:33:13.172Z,94824.72
2023-03-20T16:35:48.367Z,94830.00
2023-03-20T16:38:25.044Z,94835.66
2023-03-20T16:41:13.897Z,94833.22
2023-03-20T16:43:45.491Z,94842.53
2023-03-20T16:46:19.395Z,94838.06
2023-03-20T16:48:49.019Z,94832.78
2023-03-20T16:51:36.117Z,94829.94
2023-03-20T16:54:02.957Z,94825.47
2023-03-20T16:56:34.275Z,94833.16
2023-03-20T16:59:11.874Z,94833.75
2023-03-20T17:01:41.914Z,94837.41
2023-03-20T17:04:20.096Z,94833.75
2023-03-20T17:06:52.724Z,94832.72
2023-03-20T17:09:24.796Z,94833.53
2023-03-20T17:12:06.047Z,94827.25
2023-03-20T17:14:35.996Z,94837.81
2023-03-20T17:17:04.781Z,94833.53
2023-03-20T17:19:32.393Z,94831.50
2023-03-20T17:22:05.570Z,94829.88
2023-03-20T17:24:34.531Z,94833.94
2023-03-20T17:27:03.605Z,94827.03
2023-03-20T17:29:32.469Z,94830.47
2023-03-20T17:32:03.813Z,94835.75
2023-03-20T17:34:30.565Z,94832.06
2023-03-20T17:36:59.830Z,94845.28
2023-03-20T17:39:26.526Z,94846.91
2023-03-20T17:41:56.283Z,94845.28
2023-03-20T17:44:25.363Z,94840.00
2023-03-20T17:46:58.339Z,94843.22
2023-03-20T17:49:28.515Z,94853.78
2023-03-20T17:52:03.857Z,94856.03
2023-03-20T17:54:30.791Z,94854.38
2023-03-20T17:56:57.614Z,94858.66
2023-03-20T17:59:31.125Z,94859.66
2023-03-20T18:02:00.135Z,94858.66
2023-03-20T18:04:29.288Z,94863.31
2023-03-20T18:06:58.318Z,94871.88
2023-03-20T18:09:30.325Z,94869.22
2023-03-20T18:11:59.914Z,94874.50
2023-03-20T18:14:26.866Z,94877.72
2023-03-20T18:16:58.227Z,94867.16
2023-03-20T18:19:28.751Z,94870.84
2023-03-20T18:21:58.009Z,94867.16
2023-03-20T18:24:24.715Z,94868.78
2023-03-20T18:26:52.113Z,94865.13
2023-03-20T18:29:21.543Z,94858.22
2023-03-20T18:31:48.888Z,94864.09
2023-03-20T18:34:18.257Z,94865.13
2023-03-20T18:36:47.079Z,94865.13
2023-03-20T18:39:18.574Z,94869.38
2023-03-20T18:41:48.057Z,94870.41
2023-03-20T18:44:14.985Z,94870.41
2023-03-20T18:46:42.044Z,94873.03
2023-03-20T18:49:16.682Z,94875.69
2023-03-20T18:51:43.646Z,94880.13
2023-03-20T18:54:10.424Z,94880.97
2023-03-20T18:56:37.887Z,94887.84
2023-03-20T18:59:07.868Z,94889.91
2023-03-20T19:01:39.974Z,94894.16
2023-03-20T19:04:11.328Z,94898.41
2023-03-20T19:06:40.443Z,94894.75
2023-03-20T19:09:10.974Z,94898.41
2023-03-20T19:11:41.004Z,94889.47
2023-03-20T19:14:09.843Z,94895.34
2023-03-20T19:16:39.137Z,94893.72
2023-03-20T19:19:06.550Z,94896.38
2023-03-20T19:21:37.986Z,94889.28
2023-03-20T19:24:06.075Z,94893.72
2023-03-20T19:26:33.922Z,94899.00
2023-03-20T19:29:03.341Z,94897.19
2023-03-20T19:31:34.758Z,94897.97
2023-03-20T19:34:04.173Z,94894.31
2023-03-20T19:36:35.114Z,94899.59
2023-03-20T19:39:02.535Z,94906.50
2023-03-20T19:41:32.542Z,94908.09
2023-03-20T19:44:01.972Z,94908.09
2023-03-20T19:46:40.607Z,94918.47
2023-03-20T19:49:17.889Z,94925.16
2023-03-20T19:51:49.726Z,94921.50
2023-03-20T19:54:18.572Z,94923.13
2023-03-20T19:56:45.157Z,94930.00
2023-03-20T19:59:15.985Z,94924.72
2023-03-20T20:01:48.245Z,94915.78
2023-03-20T20:04:17.373Z,94916.59
2023-03-20T20:06:47.269Z,94919.00
2023-03-20T20:09:21.927Z,94918.22
2023-03-20T20:11:48.650Z,94914.53
2023-03-20T20:14:17.501Z,94921.66
2023-03-20T20:16:49.033Z,94923.06
2023-03-20T20:19:17.866Z,94918.56
2023-03-20T20:24:37.782Z,94913.28
2023-03-20T20:27:18.211Z,94920.19
2023-03-20T20:29:52.568Z,94916.50
2023-03-20T20:32:24.909Z,94917.53
2023-03-20T20:40:30.887Z,94919.16
2023-03-20T20:43:01.286Z,94913.88
2023-03-20T20:45:31.598Z,94914.50
2023-03-20T20:48:03.908Z,94908.38
2023-03-20T20:50:31.811Z,94907.59
2023-03-20T20:53:01.684Z,94915.28
2023-03-20T20:55:31.653Z,94911.84
2023-03-20T20:58:01.566Z,94918.16
2023-03-20T21:00:47.562Z,94912.88
2023-03-20T21:03:15.083Z,94917.13
2023-03-20T21:05:44.112Z,94919.78
2023-03-20T21:08:14.276Z,94933.56
2023-03-20T21:10:43.892Z,94925.84
2023-03-20T21:13:15.183Z,94921.38
2023-03-20T21:15:43.363Z,94921.38
2023-03-20T21:18:10.745Z,94924.63
2023-03-20T21:20:37.398Z,94922.19
2023-03-20T21:23:06.615Z,94924.63
2023-03-20T21:25:40.677Z,94923.78
2023-03-20T21:28:14.214Z,94921.97
2023-03-20T21:31:00.048Z,94919.34
2023-03-20T21:33:34.707Z,94911.41
2023-03-20T21:36:01.486Z,94915.66
2023-03-20T21:41:19.572Z,94912.19
2023-03-20T21:43:50.857Z,94903.47
2023-03-20T21:49:52.832Z,94898.97
2023-03-20T21:55:28.975Z,94898.81
2023-03-20T22:03:28.800Z,94901.44
2023-03-20T22:09:45.786Z,94901.44
2023-03-20T22:32:33.398Z,94897.78
2023-03-20T22:38:06.127Z,94896.13
2023-03-20T22:43:59.771Z,94893.72
2023-03-20T22:46:03.236Z,94892.47
2023-03-20T22:48:32.544Z,94889.81
2023-03-20T22:50:59.305Z,94891.09
2023-03-20T22:53:26.034Z,94887.63
2023-03-20T22:55:54.997Z,94883.97
2023-03-20T22:58:24.176Z,94879.50
2023-03-20T23:00:55.088Z,94883.56
2023-03-20T23:03:39.873Z,94875.63
2023-03-20T23:06:30.983Z,94869.34
2023-03-20T23:09:03.290Z,94869.34
2023-03-20T23:11:35.768Z,94857.75
2023-03-20T23:14:08.736Z,94854.66
2023-03-20T23:16:39.089Z,94864.34
2023-03-20T23:19:05.737Z,94862.28
2023-03-20T23:21:33.105Z,94859.44
2023-03-20T23:24:01.902Z,94858.22
2023-03-20T23:26:28.575Z,94859.84
2023-03-20T23:28:57.485Z,94859.41
2023-03-20T23:31:27.944Z,94855.28
2023-03-20T23:33:59.418Z,94862.19
2023-03-20T23:36:36.533Z,94862.19
2023-03-20T23:39:05.744Z,94847.97
2023-03-20T23:42:07.906Z,94850.19
2023-03-20T23:44:21.718Z,94843.88
2023-03-20T23:46:48.632Z,94843.06
2023-03-20T23:49:16.521Z,94838.34
2023-03-20T23:51:43.462Z,94836.53
2023-03-20T23:54:10.253Z,94831.84
2023-03-20T23:56:38.415Z,94829.19
2023-03-20T23:59:18.291Z,94819.44
